Saint Nikolaos — V7CQ4 — position and weather

sailwx.info

Track history (hours):
 
Tides and Currents Weather Stations Pressure Air Temp Water Temp Dewpoint Dewpoint Depression Visibility Wind Speed Wind Dir Waves Ship Positions

Saint Nikolaos

Last reported at 2017-Dec-06 22:33 UTC. Time now 2017-Dec-11 04:22 UTC.
Position N 11°20' W 074°36'.

Length 211 m; draft 10.7 m.

Type: Ship (hazmat cat C). MMSI: 538005306.

Date/timePositionNaut miles runAvg speedWind from/ knotsBaromVisibWave heightAir tempDewpointWater temp
2017-Dec-06 22:33N 11°20' W 074°36'215.8
2017-Dec-06 22:27N 11°19' W 074°38'2316.0
2017-Dec-06 21:01N 11°08' W 074°58'116.3
2017-Dec-06 20:58N 11°08' W 074°59'  
2017-Dec-01 16:12N 10°19' W 075°38'210.8
2017-Dec-01 15:59N 10°19' W 075°35'6 3.6
2017-Dec-01 14:23N 10°22' W 075°31'0 0.0
2017-Dec-01 13:59N 10°22' W 075°31'0 0.0
2017-Dec-01 13:29N 10°22' W 075°31'0 0.0
2017-Dec-01 12:59N 10°22' W 075°31'0 0.0
2017-Dec-01 12:29N 10°22' W 075°31'0 0.0
2017-Dec-01 11:59N 10°22' W 075°31'0 0.0
2017-Dec-01 11:29N 10°22' W 075°31'0 0.0
2017-Dec-01 10:59N 10°22' W 075°31'0 0.0
2017-Dec-01 10:29N 10°22' W 075°31'0 0.0
2017-Dec-01 09:59N 10°22' W 075°31'0 0.0
2017-Dec-01 09:29N 10°22' W 075°31'0 0.0
2017-Dec-01 08:59N 10°22' W 075°31'0 0.0
2017-Dec-01 08:29N 10°22' W 075°31'0 0.0
2017-Dec-01 07:59N 10°22' W 075°31'0 0.0
2017-Dec-01 07:29N 10°22' W 075°31'0 0.0
2017-Dec-01 06:59N 10°22' W 075°31'0 0.0
2017-Dec-01 06:30N 10°22' W 075°31'0 0.0
2017-Dec-01 06:00N 10°22' W 075°31'0 0.2
2017-Dec-01 05:30N 10°22' W 075°31'2 3.8
2017-Dec-01 05:00N 10°23' W 075°32'1 1.7
2017-Dec-01 04:30N 10°24' W 075°32'0 0.0
2017-Dec-01 03:59N 10°24' W 075°32'0 0.0
2017-Dec-01 03:30N 10°24' W 075°32'0 0.0
2017-Dec-01 03:00N 10°24' W 075°32'0 0.0
2017-Dec-01 02:30N 10°24' W 075°32'0 0.0
2017-Dec-01 02:00N 10°24' W 075°32'0 0.0
2017-Dec-01 01:30N 10°24' W 075°32'0 0.0
2017-Dec-01 01:00N 10°24' W 075°32'0 0.0
2017-Dec-01 00:30N 10°24' W 075°32'0 0.0
2017-Nov-30 23:36N 10°24' W 075°32'0 0.0
2017-Nov-30 23:30N 10°24' W 075°32'0 0.0
2017-Nov-30 22:58N 10°24' W 075°32'0 0.0
2017-Nov-30 22:30N 10°24' W 075°32'0 0.0
2017-Nov-30 22:00N 10°24' W 075°32'0 0.0
2017-Nov-30 21:30N 10°24' W 075°32'0 0.0
2017-Nov-30 21:00N 10°24' W 075°32'0 0.0
2017-Nov-30 20:30N 10°24' W 075°32'0 0.0
2017-Nov-30 20:00N 10°24' W 075°32'0 0.0
2017-Nov-30 19:30N 10°24' W 075°32'0 0.0
2017-Nov-30 19:00N 10°24' W 075°32'0 0.0
2017-Nov-30 18:30N 10°24' W 075°32'0 0.0
2017-Nov-30 18:00N 10°24' W 075°32'0 0.0
2017-Nov-30 17:29N 10°24' W 075°32'2 3.1
2017-Nov-30 17:00N 10°22' W 075°32'5 9.4
2017-Nov-30 16:30N 10°19' W 075°35'3 6.8
2017-Nov-30 16:00N 10°20' W 075°39'4 7.7
2017-Nov-30 15:30N 10°21' W 075°42'5 9.3
2017-Nov-30 15:00N 10°26' W 075°43'  
2017-Nov-27 15:15N 25°36' W 079°40'415.6
2017-Nov-27 15:00N 25°40' W 079°41'815.2
2017-Nov-27 14:30N 25°46' W 079°45'815.3
2017-Nov-27 14:00N 25°52' W 079°51'815.3
2017-Nov-27 13:30N 25°58' W 079°56'714.6
2017-Nov-27 13:00N 26°03' W 080°02'510.0
2017-Nov-27 12:30N 26°06' W 080°07'1 2.3
2017-Nov-27 11:58N 26°04' W 080°07'0 0.0
2017-Nov-27 11:19N 26°04' W 080°07'0 0.0
2017-Nov-27 10:49N 26°04' W 080°07'0 0.0
2017-Nov-27 10:22N 26°04' W 080°07'0 0.0
2017-Nov-27 09:55N 26°04' W 080°07'0 0.0
2017-Nov-27 09:25N 26°04' W 080°07'0 0.0
2017-Nov-27 08:53N 26°04' W 080°07'0 0.0
2017-Nov-27 08:30N 26°04' W 080°07'0 0.0
2017-Nov-27 08:01N 26°04' W 080°07'0 0.0
2017-Nov-27 07:30N 26°04' W 080°07'0 0.0
2017-Nov-27 07:00N 26°04' W 080°07'0 0.0
2017-Nov-27 06:30N 26°04' W 080°07'0 0.0
2017-Nov-27 06:00N 26°04' W 080°07'0 0.0
2017-Nov-27 05:30N 26°04' W 080°07'0 0.0
2017-Nov-27 05:00N 26°04' W 080°07'0 0.0
2017-Nov-27 04:30N 26°04' W 080°07'0 0.0
2017-Nov-27 04:00N 26°04' W 080°07'0 0.0
2017-Nov-27 03:30N 26°04' W 080°07'0 0.2
2017-Nov-27 03:00N 26°04' W 080°07'2 3.1
2017-Nov-27 02:30N 26°06' W 080°06'3 6.5
2017-Nov-27 02:00N 26°06' W 080°02'4 8.1
2017-Nov-27 01:30N 26°10' W 079°60'5 9.1
2017-Nov-27 01:00N 26°14' W 079°59'510.0
2017-Nov-27 00:30N 26°19' W 079°57'  
Track history (hours):
 
Tides and Currents Weather Stations Pressure Air Temp Water Temp Dewpoint Dewpoint Depression Visibility Wind Speed Wind Dir Waves Ship Positions

Saint Nikolaos

Last reported at 2017-Dec-06 22:33 UTC. Time now 2017-Dec-11 04:22 UTC.
Position N 11°20' W 074°36'.

Length 211 m; draft 10.7 m.

Type: Ship (hazmat cat C). MMSI: 538005306.

Date/timePositionNaut miles runAvg speedWind from/ knotsBaromVisibWave heightAir tempDewpointWater temp
2017-Dec-06 22:33N 11°20' W 074°36'215.8
2017-Dec-06 22:27N 11°19' W 074°38'2316.0
2017-Dec-06 21:01N 11°08' W 074°58'116.3
2017-Dec-06 20:58N 11°08' W 074°59'  
2017-Dec-01 16:12N 10°19' W 075°38'210.8
2017-Dec-01 15:59N 10°19' W 075°35'6 3.6
2017-Dec-01 14:23N 10°22' W 075°31'0 0.0
2017-Dec-01 13:59N 10°22' W 075°31'0 0.0
2017-Dec-01 13:29N 10°22' W 075°31'0 0.0
2017-Dec-01 12:59N 10°22' W 075°31'0 0.0
2017-Dec-01 12:29N 10°22' W 075°31'0 0.0
2017-Dec-01 11:59N 10°22' W 075°31'0 0.0
2017-Dec-01 11:29N 10°22' W 075°31'0 0.0
2017-Dec-01 10:59N 10°22' W 075°31'0 0.0
2017-Dec-01 10:29N 10°22' W 075°31'0 0.0
2017-Dec-01 09:59N 10°22' W 075°31'0 0.0
2017-Dec-01 09:29N 10°22' W 075°31'0 0.0
2017-Dec-01 08:59N 10°22' W 075°31'0 0.0
2017-Dec-01 08:29N 10°22' W 075°31'0 0.0
2017-Dec-01 07:59N 10°22' W 075°31'0 0.0
2017-Dec-01 07:29N 10°22' W 075°31'0 0.0
2017-Dec-01 06:59N 10°22' W 075°31'0 0.0
2017-Dec-01 06:30N 10°22' W 075°31'0 0.0
2017-Dec-01 06:00N 10°22' W 075°31'0 0.2
2017-Dec-01 05:30N 10°22' W 075°31'2 3.8
2017-Dec-01 05:00N 10°23' W 075°32'1 1.7
2017-Dec-01 04:30N 10°24' W 075°32'0 0.0
2017-Dec-01 03:59N 10°24' W 075°32'0 0.0
2017-Dec-01 03:30N 10°24' W 075°32'0 0.0
2017-Dec-01 03:00N 10°24' W 075°32'0 0.0
2017-Dec-01 02:30N 10°24' W 075°32'0 0.0
2017-Dec-01 02:00N 10°24' W 075°32'0 0.0
2017-Dec-01 01:30N 10°24' W 075°32'0 0.0
2017-Dec-01 01:00N 10°24' W 075°32'0 0.0
2017-Dec-01 00:30N 10°24' W 075°32'0 0.0
2017-Nov-30 23:36N 10°24' W 075°32'0 0.0
2017-Nov-30 23:30N 10°24' W 075°32'0 0.0
2017-Nov-30 22:58N 10°24' W 075°32'0 0.0
2017-Nov-30 22:30N 10°24' W 075°32'0 0.0
2017-Nov-30 22:00N 10°24' W 075°32'0 0.0
2017-Nov-30 21:30N 10°24' W 075°32'0 0.0
2017-Nov-30 21:00N 10°24' W 075°32'0 0.0
2017-Nov-30 20:30N 10°24' W 075°32'0 0.0
2017-Nov-30 20:00N 10°24' W 075°32'0 0.0
2017-Nov-30 19:30N 10°24' W 075°32'0 0.0
2017-Nov-30 19:00N 10°24' W 075°32'0 0.0
2017-Nov-30 18:30N 10°24' W 075°32'0 0.0
2017-Nov-30 18:00N 10°24' W 075°32'0 0.0
2017-Nov-30 17:29N 10°24' W 075°32'2 3.1
2017-Nov-30 17:00N 10°22' W 075°32'5 9.4
2017-Nov-30 16:30N 10°19' W 075°35'3 6.8
2017-Nov-30 16:00N 10°20' W 075°39'4 7.7
2017-Nov-30 15:30N 10°21' W 075°42'5 9.3
2017-Nov-30 15:00N 10°26' W 075°43'  
2017-Nov-27 15:15N 25°36' W 079°40'415.6
2017-Nov-27 15:00N 25°40' W 079°41'815.2
2017-Nov-27 14:30N 25°46' W 079°45'815.3
2017-Nov-27 14:00N 25°52' W 079°51'815.3
2017-Nov-27 13:30N 25°58' W 079°56'714.6
2017-Nov-27 13:00N 26°03' W 080°02'510.0
2017-Nov-27 12:30N 26°06' W 080°07'1 2.3
2017-Nov-27 11:58N 26°04' W 080°07'0 0.0
2017-Nov-27 11:19N 26°04' W 080°07'0 0.0
2017-Nov-27 10:49N 26°04' W 080°07'0 0.0
2017-Nov-27 10:22N 26°04' W 080°07'0 0.0
2017-Nov-27 09:55N 26°04' W 080°07'0 0.0
2017-Nov-27 09:25N 26°04' W 080°07'0 0.0
2017-Nov-27 08:53N 26°04' W 080°07'0 0.0
2017-Nov-27 08:30N 26°04' W 080°07'0 0.0
2017-Nov-27 08:01N 26°04' W 080°07'0 0.0
2017-Nov-27 07:30N 26°04' W 080°07'0 0.0
2017-Nov-27 07:00N 26°04' W 080°07'0 0.0
2017-Nov-27 06:30N 26°04' W 080°07'0 0.0
2017-Nov-27 06:00N 26°04' W 080°07'0 0.0
2017-Nov-27 05:30N 26°04' W 080°07'0 0.0
2017-Nov-27 05:00N 26°04' W 080°07'0 0.0
2017-Nov-27 04:30N 26°04' W 080°07'0 0.0
2017-Nov-27 04:00N 26°04' W 080°07'0 0.0
2017-Nov-27 03:30N 26°04' W 080°07'0 0.2
2017-Nov-27 03:00N 26°04' W 080°07'2 3.1
2017-Nov-27 02:30N 26°06' W 080°06'3 6.5
2017-Nov-27 02:00N 26°06' W 080°02'4 8.1
2017-Nov-27 01:30N 26°10' W 079°60'5 9.1
2017-Nov-27 01:00N 26°14' W 079°59'510.0
2017-Nov-27 00:30N 26°19' W 079°57'  

Dump ship's entire track history